Koloa, Hawaii
Current Conditions -  °F | °C
As of 6:53 PM on Tuesday 21 Oct 2014 (Local Time) from PHLI Reporting Station
Light Rain Light Rain  
Wind Chill: 76°   Ceiling: 3300
Heat Index: 76°   Visibility: 7mi
Dew Point: 74°   Wind: 0mph
Humidity: 94%   Direction: NA
Pressure: 29.98"   Gusts: NA
Location:  21.9°N, 159.45°W
Report Text: PHLI 220453Z 00000KT 7SM -RA FEW018 OVC033 24/23 A2998 RMK AO2 RAB22 SLP149 P0001 T02440233
Loading
Personal Weather Stations






























Interactive Weather Map
Tropical Storm Tracking
New forecast layout! Learn more

10-Day Weather Forecast

Advertisements
Track Severe Weather on mobile